sensor_id;sensor_type;location;lat;lon;timestamp;P1;durP1;ratioP1;P2;durP2;ratioP2
57073;SDS011;69035;54.392;18.574;2023-04-23T00:00:09;11.23;;;6.70;;
57073;SDS011;69035;54.392;18.574;2023-04-23T00:03:01;12.70;;;6.80;;
57073;SDS011;69035;54.392;18.574;2023-04-23T00:05:36;15.07;;;7.00;;
57073;SDS011;69035;54.392;18.574;2023-04-23T00:08:07;16.02;;;8.00;;
57073;SDS011;69035;54.392;18.574;2023-04-23T00:10:37;12.88;;;6.72;;
57073;SDS011;69035;54.392;18.574;2023-04-23T00:13:06;13.98;;;7.55;;
57073;SDS011;69035;54.392;18.574;2023-04-23T00:15:36;11.95;;;7.40;;
57073;SDS011;69035;54.392;18.574;2023-04-23T00:18:07;16.63;;;7.82;;
57073;SDS011;69035;54.392;18.574;2023-04-23T00:20:36;12.15;;;6.63;;
57073;SDS011;69035;54.392;18.574;2023-04-23T00:23:04;16.23;;;7.18;;
57073;SDS011;69035;54.392;18.574;2023-04-23T00:25:33;14.45;;;6.63;;
57073;SDS011;69035;54.392;18.574;2023-04-23T00:28:02;14.77;;;5.97;;
57073;SDS011;69035;54.392;18.574;2023-04-23T00:30:32;11.52;;;6.30;;
57073;SDS011;69035;54.392;18.574;2023-04-23T00:33:01;10.63;;;5.65;;
57073;SDS011;69035;54.392;18.574;2023-04-23T00:35:32;10.23;;;5.38;;
57073;SDS011;69035;54.392;18.574;2023-04-23T00:38:01;9.82;;;4.88;;
57073;SDS011;69035;54.392;18.574;2023-04-23T00:40:30;13.00;;;5.67;;
57073;SDS011;69035;54.392;18.574;2023-04-23T00:42:59;9.87;;;5.70;;
57073;SDS011;69035;54.392;18.574;2023-04-23T00:45:28;9.85;;;5.45;;
57073;SDS011;69035;54.392;18.574;2023-04-23T00:47:57;11.32;;;5.43;;
57073;SDS011;69035;54.392;18.574;2023-04-23T00:50:26;11.70;;;5.38;;
57073;SDS011;69035;54.392;18.574;2023-04-23T00:52:57;12.43;;;5.82;;
57073;SDS011;69035;54.392;18.574;2023-04-23T00:55:26;10.43;;;5.38;;
57073;SDS011;69035;54.392;18.574;2023-04-23T00:57:55;12.85;;;5.70;;
57073;SDS011;69035;54.392;18.574;2023-04-23T01:00:25;12.55;;;5.57;;
57073;SDS011;69035;54.392;18.574;2023-04-23T01:02:54;12.35;;;5.15;;
57073;SDS011;69035;54.392;18.574;2023-04-23T01:05:25;10.18;;;5.20;;
57073;SDS011;69035;54.392;18.574;2023-04-23T01:10:25;9.07;;;4.88;;
57073;SDS011;69035;54.392;18.574;2023-04-23T01:15:22;9.63;;;5.07;;
57073;SDS011;69035;54.392;18.574;2023-04-23T01:17:51;10.35;;;5.40;;
57073;SDS011;69035;54.392;18.574;2023-04-23T01:20:20;11.00;;;5.38;;
57073;SDS011;69035;54.392;18.574;2023-04-23T01:22:50;12.25;;;5.32;;
57073;SDS011;69035;54.392;18.574;2023-04-23T01:25:19;13.98;;;5.80;;
57073;SDS011;69035;54.392;18.574;2023-04-23T01:27:48;14.13;;;6.22;;
57073;SDS011;69035;54.392;18.574;2023-04-23T01:30:18;13.02;;;5.68;;
57073;SDS011;69035;54.392;18.574;2023-04-23T01:32:47;13.73;;;5.88;;
57073;SDS011;69035;54.392;18.574;2023-04-23T01:35:18;12.50;;;5.60;;
57073;SDS011;69035;54.392;18.574;2023-04-23T01:37:47;10.25;;;6.00;;
57073;SDS011;69035;54.392;18.574;2023-04-23T01:40:20;14.07;;;6.30;;
57073;SDS011;69035;54.392;18.574;2023-04-23T01:42:49;12.50;;;5.25;;
57073;SDS011;69035;54.392;18.574;2023-04-23T01:45:19;13.38;;;6.15;;
57073;SDS011;69035;54.392;18.574;2023-04-23T01:47:47;11.87;;;6.03;;
57073;SDS011;69035;54.392;18.574;2023-04-23T01:50:16;10.47;;;5.53;;
57073;SDS011;69035;54.392;18.574;2023-04-23T01:52:47;12.77;;;5.72;;
57073;SDS011;69035;54.392;18.574;2023-04-23T01:55:16;10.50;;;5.03;;
57073;SDS011;69035;54.392;18.574;2023-04-23T01:57:47;10.73;;;5.25;;
57073;SDS011;69035;54.392;18.574;2023-04-23T02:00:17;10.27;;;5.30;;
57073;SDS011;69035;54.392;18.574;2023-04-23T02:02:46;8.90;;;4.75;;
57073;SDS011;69035;54.392;18.574;2023-04-23T02:05:17;9.95;;;5.03;;
57073;SDS011;69035;54.392;18.574;2023-04-23T02:07:47;14.07;;;5.20;;
57073;SDS011;69035;54.392;18.574;2023-04-23T02:10:17;10.73;;;5.03;;
57073;SDS011;69035;54.392;18.574;2023-04-23T02:12:47;15.48;;;5.75;;
57073;SDS011;69035;54.392;18.574;2023-04-23T02:15:16;11.82;;;5.32;;
57073;SDS011;69035;54.392;18.574;2023-04-23T02:17:47;12.85;;;5.78;;
57073;SDS011;69035;54.392;18.574;2023-04-23T02:20:18;9.27;;;5.10;;
57073;SDS011;69035;54.392;18.574;2023-04-23T02:22:48;10.90;;;5.32;;
57073;SDS011;69035;54.392;18.574;2023-04-23T02:25:18;11.52;;;5.45;;
57073;SDS011;69035;54.392;18.574;2023-04-23T02:27:49;14.20;;;5.70;;
57073;SDS011;69035;54.392;18.574;2023-04-23T02:30:18;11.40;;;6.18;;
57073;SDS011;69035;54.392;18.574;2023-04-23T02:32:48;14.68;;;5.75;;
57073;SDS011;69035;54.392;18.574;2023-04-23T02:35:17;11.57;;;6.00;;
57073;SDS011;69035;54.392;18.574;2023-04-23T02:37:47;12.13;;;6.10;;
57073;SDS011;69035;54.392;18.574;2023-04-23T02:40:15;13.82;;;6.32;;
57073;SDS011;69035;54.392;18.574;2023-04-23T02:42:44;10.82;;;6.47;;
57073;SDS011;69035;54.392;18.574;2023-04-23T02:45:15;11.27;;;6.07;;
57073;SDS011;69035;54.392;18.574;2023-04-23T02:47:43;12.57;;;6.00;;
57073;SDS011;69035;54.392;18.574;2023-04-23T02:50:12;14.52;;;6.78;;
57073;SDS011;69035;54.392;18.574;2023-04-23T02:52:41;11.43;;;6.00;;
57073;SDS011;69035;54.392;18.574;2023-04-23T02:55:10;13.70;;;6.95;;
57073;SDS011;69035;54.392;18.574;2023-04-23T02:57:38;13.38;;;6.80;;
57073;SDS011;69035;54.392;18.574;2023-04-23T03:00:08;13.00;;;6.50;;
57073;SDS011;69035;54.392;18.574;2023-04-23T03:02:42;13.80;;;6.68;;
57073;SDS011;69035;54.392;18.574;2023-04-23T03:05:12;13.13;;;6.85;;
57073;SDS011;69035;54.392;18.574;2023-04-23T03:07:41;11.50;;;6.60;;
57073;SDS011;69035;54.392;18.574;2023-04-23T03:10:10;11.43;;;6.25;;
57073;SDS011;69035;54.392;18.574;2023-04-23T03:12:39;13.65;;;7.15;;
57073;SDS011;69035;54.392;18.574;2023-04-23T03:15:08;11.57;;;6.45;;
57073;SDS011;69035;54.392;18.574;2023-04-23T03:20:09;12.88;;;6.80;;
57073;SDS011;69035;54.392;18.574;2023-04-23T03:22:39;11.70;;;6.47;;
57073;SDS011;69035;54.392;18.574;2023-04-23T03:25:08;14.85;;;7.45;;
57073;SDS011;69035;54.392;18.574;2023-04-23T03:27:38;15.35;;;7.30;;
57073;SDS011;69035;54.392;18.574;2023-04-23T03:30:07;12.55;;;7.47;;
57073;SDS011;69035;54.392;18.574;2023-04-23T03:32:36;13.35;;;7.10;;
57073;SDS011;69035;54.392;18.574;2023-04-23T03:35:06;12.82;;;6.88;;
57073;SDS011;69035;54.392;18.574;2023-04-23T03:37:41;16.75;;;7.55;;
57073;SDS011;69035;54.392;18.574;2023-04-23T03:40:11;15.13;;;7.38;;
57073;SDS011;69035;54.392;18.574;2023-04-23T03:42:42;13.35;;;6.93;;
57073;SDS011;69035;54.392;18.574;2023-04-23T03:45:13;12.55;;;7.30;;
57073;SDS011;69035;54.392;18.574;2023-04-23T03:47:43;13.63;;;7.18;;
57073;SDS011;69035;54.392;18.574;2023-04-23T03:50:15;15.07;;;8.25;;
57073;SDS011;69035;54.392;18.574;2023-04-23T03:52:51;14.73;;;8.07;;
57073;SDS011;69035;54.392;18.574;2023-04-23T03:55:40;16.95;;;8.98;;
57073;SDS011;69035;54.392;18.574;2023-04-23T03:58:09;14.38;;;8.13;;
57073;SDS011;69035;54.392;18.574;2023-04-23T04:00:42;15.93;;;8.48;;
57073;SDS011;69035;54.392;18.574;2023-04-23T04:03:11;16.50;;;7.78;;
57073;SDS011;69035;54.392;18.574;2023-04-23T04:05:42;17.38;;;9.27;;
57073;SDS011;69035;54.392;18.574;2023-04-23T04:08:11;16.17;;;9.07;;
57073;SDS011;69035;54.392;18.574;2023-04-23T04:10:39;16.02;;;8.95;;
57073;SDS011;69035;54.392;18.574;2023-04-23T04:13:08;16.70;;;9.10;;
57073;SDS011;69035;54.392;18.574;2023-04-23T04:15:37;16.77;;;8.95;;
57073;SDS011;69035;54.392;18.574;2023-04-23T04:18:05;18.90;;;9.57;;
57073;SDS011;69035;54.392;18.574;2023-04-23T04:20:34;17.02;;;8.90;;
57073;SDS011;69035;54.392;18.574;2023-04-23T04:23:05;15.38;;;8.98;;
57073;SDS011;69035;54.392;18.574;2023-04-23T04:25:34;18.77;;;9.15;;
57073;SDS011;69035;54.392;18.574;2023-04-23T04:28:05;17.63;;;10.07;;
57073;SDS011;69035;54.392;18.574;2023-04-23T04:30:35;18.98;;;10.05;;
57073;SDS011;69035;54.392;18.574;2023-04-23T04:33:04;20.10;;;10.15;;
57073;SDS011;69035;54.392;18.574;2023-04-23T04:35:33;15.98;;;9.25;;
57073;SDS011;69035;54.392;18.574;2023-04-23T04:38:02;21.77;;;9.43;;
57073;SDS011;69035;54.392;18.574;2023-04-23T04:40:32;18.77;;;10.25;;
57073;SDS011;69035;54.392;18.574;2023-04-23T04:43:01;16.90;;;9.43;;
57073;SDS011;69035;54.392;18.574;2023-04-23T04:45:32;16.20;;;9.50;;
57073;SDS011;69035;54.392;18.574;2023-04-23T04:48:01;16.52;;;9.45;;
57073;SDS011;69035;54.392;18.574;2023-04-23T04:50:29;18.15;;;9.35;;
57073;SDS011;69035;54.392;18.574;2023-04-23T04:52:58;18.55;;;9.27;;
57073;SDS011;69035;54.392;18.574;2023-04-23T04:55:26;16.43;;;9.63;;
57073;SDS011;69035;54.392;18.574;2023-04-23T04:57:56;17.70;;;9.23;;
57073;SDS011;69035;54.392;18.574;2023-04-23T05:00:26;18.88;;;8.80;;
57073;SDS011;69035;54.392;18.574;2023-04-23T05:02:56;17.83;;;9.73;;
57073;SDS011;69035;54.392;18.574;2023-04-23T05:05:26;15.90;;;9.20;;
57073;SDS011;69035;54.392;18.574;2023-04-23T05:07:55;18.20;;;9.65;;
57073;SDS011;69035;54.392;18.574;2023-04-23T05:10:25;17.88;;;9.57;;
57073;SDS011;69035;54.392;18.574;2023-04-23T05:12:55;19.08;;;9.68;;
57073;SDS011;69035;54.392;18.574;2023-04-23T05:15:25;14.55;;;9.05;;
57073;SDS011;69035;54.392;18.574;2023-04-23T05:17:54;15.55;;;9.55;;
57073;SDS011;69035;54.392;18.574;2023-04-23T05:20:23;16.90;;;9.07;;
57073;SDS011;69035;54.392;18.574;2023-04-23T05:22:52;15.52;;;9.45;;
57073;SDS011;69035;54.392;18.574;2023-04-23T05:25:22;17.52;;;10.02;;
57073;SDS011;69035;54.392;18.574;2023-04-23T05:27:50;16.38;;;9.15;;
57073;SDS011;69035;54.392;18.574;2023-04-23T05:30:20;16.15;;;9.68;;
57073;SDS011;69035;54.392;18.574;2023-04-23T05:32:49;17.83;;;9.75;;
57073;SDS011;69035;54.392;18.574;2023-04-23T05:35:18;14.85;;;8.70;;
57073;SDS011;69035;54.392;18.574;2023-04-23T05:37:47;17.20;;;9.45;;
57073;SDS011;69035;54.392;18.574;2023-04-23T05:40:16;15.30;;;9.02;;
57073;SDS011;69035;54.392;18.574;2023-04-23T05:42:44;14.70;;;8.98;;
57073;SDS011;69035;54.392;18.574;2023-04-23T05:45:13;18.88;;;10.15;;
57073;SDS011;69035;54.392;18.574;2023-04-23T05:47:43;16.13;;;9.35;;
57073;SDS011;69035;54.392;18.574;2023-04-23T05:50:12;14.85;;;9.63;;
57073;SDS011;69035;54.392;18.574;2023-04-23T05:52:41;18.50;;;10.32;;
57073;SDS011;69035;54.392;18.574;2023-04-23T05:55:10;18.73;;;9.52;;
57073;SDS011;69035;54.392;18.574;2023-04-23T05:57:41;16.67;;;9.57;;
57073;SDS011;69035;54.392;18.574;2023-04-23T06:00:10;15.05;;;8.98;;
57073;SDS011;69035;54.392;18.574;2023-04-23T06:02:40;15.60;;;9.80;;
57073;SDS011;69035;54.392;18.574;2023-04-23T06:07:40;15.93;;;9.50;;
57073;SDS011;69035;54.392;18.574;2023-04-23T06:10:10;14.77;;;9.52;;
57073;SDS011;69035;54.392;18.574;2023-04-23T06:12:38;14.13;;;9.73;;
57073;SDS011;69035;54.392;18.574;2023-04-23T06:17:37;17.85;;;9.90;;
57073;SDS011;69035;54.392;18.574;2023-04-23T06:20:06;17.67;;;9.70;;
57073;SDS011;69035;54.392;18.574;2023-04-23T06:22:39;21.35;;;9.75;;
57073;SDS011;69035;54.392;18.574;2023-04-23T06:25:08;14.90;;;9.52;;
57073;SDS011;69035;54.392;18.574;2023-04-23T06:27:36;16.45;;;9.57;;
57073;SDS011;69035;54.392;18.574;2023-04-23T06:30:13;14.70;;;9.43;;
57073;SDS011;69035;54.392;18.574;2023-04-23T06:32:43;16.58;;;9.63;;
57073;SDS011;69035;54.392;18.574;2023-04-23T06:35:12;16.63;;;9.83;;
57073;SDS011;69035;54.392;18.574;2023-04-23T06:37:42;16.90;;;10.15;;
57073;SDS011;69035;54.392;18.574;2023-04-23T06:40:10;15.18;;;9.35;;
57073;SDS011;69035;54.392;18.574;2023-04-23T06:42:39;15.33;;;9.53;;
57073;SDS011;69035;54.392;18.574;2023-04-23T06:45:30;16.85;;;9.40;;
57073;SDS011;69035;54.392;18.574;2023-04-23T06:47:59;14.88;;;9.80;;
57073;SDS011;69035;54.392;18.574;2023-04-23T06:50:28;17.30;;;10.10;;
57073;SDS011;69035;54.392;18.574;2023-04-23T06:52:58;18.67;;;10.50;;
57073;SDS011;69035;54.392;18.574;2023-04-23T06:55:27;15.23;;;10.32;;
57073;SDS011;69035;54.392;18.574;2023-04-23T06:57:56;17.10;;;10.20;;
57073;SDS011;69035;54.392;18.574;2023-04-23T07:00:25;21.80;;;10.38;;
57073;SDS011;69035;54.392;18.574;2023-04-23T07:02:54;15.73;;;10.55;;
57073;SDS011;69035;54.392;18.574;2023-04-23T07:05:23;16.27;;;10.10;;
57073;SDS011;69035;54.392;18.574;2023-04-23T07:07:51;16.23;;;11.05;;
57073;SDS011;69035;54.392;18.574;2023-04-23T07:10:22;15.85;;;10.00;;
57073;SDS011;69035;54.392;18.574;2023-04-23T07:12:50;16.35;;;10.18;;
57073;SDS011;69035;54.392;18.574;2023-04-23T07:15:19;17.10;;;10.35;;
57073;SDS011;69035;54.392;18.574;2023-04-23T07:17:48;18.00;;;10.90;;
57073;SDS011;69035;54.392;18.574;2023-04-23T07:20:18;17.77;;;10.45;;
57073;SDS011;69035;54.392;18.574;2023-04-23T07:22:46;19.98;;;11.10;;
57073;SDS011;69035;54.392;18.574;2023-04-23T07:25:15;16.08;;;9.98;;
57073;SDS011;69035;54.392;18.574;2023-04-23T07:27:45;16.17;;;10.40;;
57073;SDS011;69035;54.392;18.574;2023-04-23T07:30:14;19.13;;;10.98;;
57073;SDS011;69035;54.392;18.574;2023-04-23T07:32:43;16.02;;;10.98;;
57073;SDS011;69035;54.392;18.574;2023-04-23T07:35:12;14.75;;;10.63;;
57073;SDS011;69035;54.392;18.574;2023-04-23T07:37:40;17.10;;;11.00;;
57073;SDS011;69035;54.392;18.574;2023-04-23T07:40:09;16.65;;;10.02;;
57073;SDS011;69035;54.392;18.574;2023-04-23T07:42:38;15.13;;;10.65;;
57073;SDS011;69035;54.392;18.574;2023-04-23T07:45:10;19.15;;;10.68;;
57073;SDS011;69035;54.392;18.574;2023-04-23T07:47:39;16.95;;;10.15;;
57073;SDS011;69035;54.392;18.574;2023-04-23T07:50:08;15.68;;;10.50;;
57073;SDS011;69035;54.392;18.574;2023-04-23T07:52:37;16.88;;;9.80;;
57073;SDS011;69035;54.392;18.574;2023-04-23T07:55:06;16.95;;;9.88;;
57073;SDS011;69035;54.392;18.574;2023-04-23T07:57:36;16.48;;;9.90;;
57073;SDS011;69035;54.392;18.574;2023-04-23T08:00:05;14.98;;;10.13;;
57073;SDS011;69035;54.392;18.574;2023-04-23T08:02:41;14.85;;;9.77;;
57073;SDS011;69035;54.392;18.574;2023-04-23T08:05:11;15.23;;;10.75;;
57073;SDS011;69035;54.392;18.574;2023-04-23T08:07:40;15.35;;;10.48;;
57073;SDS011;69035;54.392;18.574;2023-04-23T08:10:09;14.75;;;9.70;;
57073;SDS011;69035;54.392;18.574;2023-04-23T08:12:37;17.83;;;10.10;;
57073;SDS011;69035;54.392;18.574;2023-04-23T08:15:07;18.25;;;10.85;;
57073;SDS011;69035;54.392;18.574;2023-04-23T08:17:41;15.63;;;10.75;;
57073;SDS011;69035;54.392;18.574;2023-04-23T08:20:10;18.25;;;10.15;;
57073;SDS011;69035;54.392;18.574;2023-04-23T08:22:39;18.60;;;10.57;;
57073;SDS011;69035;54.392;18.574;2023-04-23T08:25:08;14.23;;;9.87;;
57073;SDS011;69035;54.392;18.574;2023-04-23T08:27:38;15.48;;;9.77;;
57073;SDS011;69035;54.392;18.574;2023-04-23T08:30:07;15.38;;;10.07;;
57073;SDS011;69035;54.392;18.574;2023-04-23T08:32:37;13.77;;;9.80;;
57073;SDS011;69035;54.392;18.574;2023-04-23T08:35:08;16.10;;;10.13;;
57073;SDS011;69035;54.392;18.574;2023-04-23T08:37:38;14.23;;;9.05;;
57073;SDS011;69035;54.392;18.574;2023-04-23T08:40:07;14.50;;;9.57;;
57073;SDS011;69035;54.392;18.574;2023-04-23T08:45:07;12.88;;;9.30;;
57073;SDS011;69035;54.392;18.574;2023-04-23T08:50:11;14.15;;;8.77;;
57073;SDS011;69035;54.392;18.574;2023-04-23T08:52:45;14.18;;;9.27;;
57073;SDS011;69035;54.392;18.574;2023-04-23T08:55:15;13.98;;;9.23;;
57073;SDS011;69035;54.392;18.574;2023-04-23T09:00:14;13.52;;;8.90;;
57073;SDS011;69035;54.392;18.574;2023-04-23T09:02:44;16.38;;;9.40;;
57073;SDS011;69035;54.392;18.574;2023-04-23T09:05:16;14.60;;;9.48;;
57073;SDS011;69035;54.392;18.574;2023-04-23T09:07:45;13.75;;;9.65;;
57073;SDS011;69035;54.392;18.574;2023-04-23T09:10:14;15.48;;;9.90;;
57073;SDS011;69035;54.392;18.574;2023-04-23T09:12:45;15.57;;;11.20;;
57073;SDS011;69035;54.392;18.574;2023-04-23T09:15:15;18.83;;;11.45;;
57073;SDS011;69035;54.392;18.574;2023-04-23T09:17:45;16.10;;;9.73;;
57073;SDS011;69035;54.392;18.574;2023-04-23T09:20:17;17.30;;;9.65;;
57073;SDS011;69035;54.392;18.574;2023-04-23T09:22:46;15.68;;;9.43;;
57073;SDS011;69035;54.392;18.574;2023-04-23T09:25:17;15.43;;;10.18;;
57073;SDS011;69035;54.392;18.574;2023-04-23T09:27:47;14.23;;;10.13;;
57073;SDS011;69035;54.392;18.574;2023-04-23T09:30:18;14.32;;;9.00;;
57073;SDS011;69035;54.392;18.574;2023-04-23T09:32:47;13.38;;;9.23;;
57073;SDS011;69035;54.392;18.574;2023-04-23T09:37:47;14.65;;;8.65;;
57073;SDS011;69035;54.392;18.574;2023-04-23T09:40:19;12.77;;;8.88;;
57073;SDS011;69035;54.392;18.574;2023-04-23T09:42:49;12.77;;;8.20;;
57073;SDS011;69035;54.392;18.574;2023-04-23T09:45:21;14.00;;;8.70;;
57073;SDS011;69035;54.392;18.574;2023-04-23T09:47:51;12.15;;;7.97;;
57073;SDS011;69035;54.392;18.574;2023-04-23T09:50:31;11.95;;;7.43;;
57073;SDS011;69035;54.392;18.574;2023-04-23T09:53:01;13.05;;;9.38;;
57073;SDS011;69035;54.392;18.574;2023-04-23T09:55:31;13.75;;;8.25;;
57073;SDS011;69035;54.392;18.574;2023-04-23T09:58:05;13.55;;;8.65;;
57073;SDS011;69035;54.392;18.574;2023-04-23T10:00:35;11.15;;;8.18;;
57073;SDS011;69035;54.392;18.574;2023-04-23T10:03:04;10.65;;;8.52;;
57073;SDS011;69035;54.392;18.574;2023-04-23T10:05:39;12.18;;;8.23;;
57073;SDS011;69035;54.392;18.574;2023-04-23T10:08:12;11.13;;;7.68;;
57073;SDS011;69035;54.392;18.574;2023-04-23T10:10:42;12.48;;;8.43;;
57073;SDS011;69035;54.392;18.574;2023-04-23T10:13:32;16.83;;;8.35;;
57073;SDS011;69035;54.392;18.574;2023-04-23T10:16:02;11.68;;;8.30;;
57073;SDS011;69035;54.392;18.574;2023-04-23T10:18:48;12.93;;;7.65;;
57073;SDS011;69035;54.392;18.574;2023-04-23T10:21:24;11.07;;;8.02;;
57073;SDS011;69035;54.392;18.574;2023-04-23T10:24:12;13.60;;;8.18;;
57073;SDS011;69035;54.392;18.574;2023-04-23T10:26:42;11.88;;;7.70;;
57073;SDS011;69035;54.392;18.574;2023-04-23T10:29:13;13.25;;;7.90;;
57073;SDS011;69035;54.392;18.574;2023-04-23T10:31:43;14.73;;;8.18;;
57073;SDS011;69035;54.392;18.574;2023-04-23T10:34:13;10.57;;;8.05;;
57073;SDS011;69035;54.392;18.574;2023-04-23T10:36:44;12.15;;;7.70;;
57073;SDS011;69035;54.392;18.574;2023-04-23T10:39:13;11.32;;;7.88;;
57073;SDS011;69035;54.392;18.574;2023-04-23T10:41:55;9.63;;;7.65;;
57073;SDS011;69035;54.392;18.574;2023-04-23T10:44:30;13.27;;;8.23;;
57073;SDS011;69035;54.392;18.574;2023-04-23T10:47:20;14.00;;;7.80;;
57073;SDS011;69035;54.392;18.574;2023-04-23T10:49:49;12.48;;;7.63;;
57073;SDS011;69035;54.392;18.574;2023-04-23T10:52:20;10.63;;;7.45;;
57073;SDS011;69035;54.392;18.574;2023-04-23T10:54:55;10.60;;;7.38;;
57073;SDS011;69035;54.392;18.574;2023-04-23T10:57:26;11.85;;;7.43;;
57073;SDS011;69035;54.392;18.574;2023-04-23T10:59:55;12.20;;;7.63;;
57073;SDS011;69035;54.392;18.574;2023-04-23T11:02:25;11.90;;;8.15;;
57073;SDS011;69035;54.392;18.574;2023-04-23T11:04:54;10.52;;;7.07;;
57073;SDS011;69035;54.392;18.574;2023-04-23T11:07:29;10.98;;;7.75;;
57073;SDS011;69035;54.392;18.574;2023-04-23T11:09:58;10.52;;;7.30;;
57073;SDS011;69035;54.392;18.574;2023-04-23T11:12:31;10.82;;;6.63;;
57073;SDS011;69035;54.392;18.574;2023-04-23T11:15:08;14.40;;;7.20;;
57073;SDS011;69035;54.392;18.574;2023-04-23T11:17:57;13.75;;;7.03;;
57073;SDS011;69035;54.392;18.574;2023-04-23T11:20:27;11.68;;;7.63;;
57073;SDS011;69035;54.392;18.574;2023-04-23T11:22:58;10.45;;;6.80;;
57073;SDS011;69035;54.392;18.574;2023-04-23T11:25:26;11.57;;;6.13;;
57073;SDS011;69035;54.392;18.574;2023-04-23T11:27:56;10.27;;;6.65;;
57073;SDS011;69035;54.392;18.574;2023-04-23T11:30:26;11.43;;;6.72;;
57073;SDS011;69035;54.392;18.574;2023-04-23T11:32:56;8.80;;;5.43;;
57073;SDS011;69035;54.392;18.574;2023-04-23T11:35:27;10.07;;;5.50;;
57073;SDS011;69035;54.392;18.574;2023-04-23T11:38:08;9.65;;;5.97;;
57073;SDS011;69035;54.392;18.574;2023-04-23T11:40:36;9.45;;;5.88;;
57073;SDS011;69035;54.392;18.574;2023-04-23T11:43:09;10.07;;;5.60;;
57073;SDS011;69035;54.392;18.574;2023-04-23T11:45:37;10.45;;;5.15;;
57073;SDS011;69035;54.392;18.574;2023-04-23T11:48:06;8.65;;;5.05;;
57073;SDS011;69035;54.392;18.574;2023-04-23T11:50:35;8.57;;;5.40;;
57073;SDS011;69035;54.392;18.574;2023-04-23T11:53:05;9.35;;;5.50;;
57073;SDS011;69035;54.392;18.574;2023-04-23T11:55:36;8.20;;;5.25;;
57073;SDS011;69035;54.392;18.574;2023-04-23T11:58:10;7.95;;;4.90;;
57073;SDS011;69035;54.392;18.574;2023-04-23T12:00:38;8.03;;;5.07;;
57073;SDS011;69035;54.392;18.574;2023-04-23T12:03:07;11.68;;;5.30;;
57073;SDS011;69035;54.392;18.574;2023-04-23T12:05:40;11.07;;;5.22;;
57073;SDS011;69035;54.392;18.574;2023-04-23T12:08:14;10.15;;;5.30;;
57073;SDS011;69035;54.392;18.574;2023-04-23T12:10:46;8.13;;;5.32;;
57073;SDS011;69035;54.392;18.574;2023-04-23T12:13:16;8.35;;;5.13;;
57073;SDS011;69035;54.392;18.574;2023-04-23T12:15:46;7.07;;;5.05;;
57073;SDS011;69035;54.392;18.574;2023-04-23T12:18:16;9.90;;;5.00;;
57073;SDS011;69035;54.392;18.574;2023-04-23T12:20:45;8.00;;;5.30;;
57073;SDS011;69035;54.392;18.574;2023-04-23T12:23:14;9.02;;;5.82;;
57073;SDS011;69035;54.392;18.574;2023-04-23T12:25:42;10.35;;;6.10;;
57073;SDS011;69035;54.392;18.574;2023-04-23T12:28:13;10.82;;;6.10;;
57073;SDS011;69035;54.392;18.574;2023-04-23T12:30:42;9.03;;;5.87;;
57073;SDS011;69035;54.392;18.574;2023-04-23T12:33:11;9.68;;;6.22;;
57073;SDS011;69035;54.392;18.574;2023-04-23T12:35:40;9.60;;;6.13;;
57073;SDS011;69035;54.392;18.574;2023-04-23T12:38:20;9.27;;;5.90;;
57073;SDS011;69035;54.392;18.574;2023-04-23T12:40:52;10.85;;;6.53;;
57073;SDS011;69035;54.392;18.574;2023-04-23T12:43:22;9.48;;;5.93;;
57073;SDS011;69035;54.392;18.574;2023-04-23T12:45:51;9.57;;;5.80;;
57073;SDS011;69035;54.392;18.574;2023-04-23T12:48:19;9.98;;;5.75;;
57073;SDS011;69035;54.392;18.574;2023-04-23T12:50:48;11.93;;;5.50;;
57073;SDS011;69035;54.392;18.574;2023-04-23T12:53:17;10.82;;;5.63;;
57073;SDS011;69035;54.392;18.574;2023-04-23T12:55:45;7.77;;;5.47;;
57073;SDS011;69035;54.392;18.574;2023-04-23T12:58:16;9.88;;;5.70;;
57073;SDS011;69035;54.392;18.574;2023-04-23T13:00:45;8.80;;;5.75;;
57073;SDS011;69035;54.392;18.574;2023-04-23T13:03:14;9.63;;;5.88;;
57073;SDS011;69035;54.392;18.574;2023-04-23T13:05:45;10.30;;;6.03;;
57073;SDS011;69035;54.392;18.574;2023-04-23T13:08:14;10.00;;;6.25;;
57073;SDS011;69035;54.392;18.574;2023-04-23T13:10:43;9.80;;;6.20;;
57073;SDS011;69035;54.392;18.574;2023-04-23T13:13:12;10.30;;;6.15;;
57073;SDS011;69035;54.392;18.574;2023-04-23T13:15:42;9.87;;;5.47;;
57073;SDS011;69035;54.392;18.574;2023-04-23T13:18:11;9.40;;;5.57;;
57073;SDS011;69035;54.392;18.574;2023-04-23T13:20:39;9.50;;;5.63;;
57073;SDS011;69035;54.392;18.574;2023-04-23T13:23:09;9.88;;;5.68;;
57073;SDS011;69035;54.392;18.574;2023-04-23T13:25:39;10.07;;;5.88;;
57073;SDS011;69035;54.392;18.574;2023-04-23T13:28:07;10.70;;;5.10;;
57073;SDS011;69035;54.392;18.574;2023-04-23T13:30:36;9.40;;;5.43;;
57073;SDS011;69035;54.392;18.574;2023-04-23T13:33:06;11.18;;;5.68;;
57073;SDS011;69035;54.392;18.574;2023-04-23T13:35:35;11.63;;;5.80;;
57073;SDS011;69035;54.392;18.574;2023-04-23T13:40:32;8.07;;;5.20;;
57073;SDS011;69035;54.392;18.574;2023-04-23T13:43:01;7.55;;;5.22;;
57073;SDS011;69035;54.392;18.574;2023-04-23T13:45:30;9.90;;;5.35;;
57073;SDS011;69035;54.392;18.574;2023-04-23T13:47:58;10.90;;;5.90;;
57073;SDS011;69035;54.392;18.574;2023-04-23T13:52:58;8.85;;;5.32;;
57073;SDS011;69035;54.392;18.574;2023-04-23T13:55:27;9.82;;;5.20;;
57073;SDS011;69035;54.392;18.574;2023-04-23T13:57:55;9.45;;;5.22;;
57073;SDS011;69035;54.392;18.574;2023-04-23T14:00:25;10.10;;;5.50;;
57073;SDS011;69035;54.392;18.574;2023-04-23T14:02:55;10.23;;;5.75;;
57073;SDS011;69035;54.392;18.574;2023-04-23T14:05:24;9.13;;;5.35;;
57073;SDS011;69035;54.392;18.574;2023-04-23T14:07:54;7.85;;;5.05;;
57073;SDS011;69035;54.392;18.574;2023-04-23T14:10:23;11.55;;;5.75;;
57073;SDS011;69035;54.392;18.574;2023-04-23T14:12:51;9.15;;;5.40;;
57073;SDS011;69035;54.392;18.574;2023-04-23T14:17:49;8.25;;;5.25;;
57073;SDS011;69035;54.392;18.574;2023-04-23T14:20:18;9.57;;;5.53;;
57073;SDS011;69035;54.392;18.574;2023-04-23T14:22:48;12.57;;;5.25;;
57073;SDS011;69035;54.392;18.574;2023-04-23T14:25:28;7.93;;;5.22;;
57073;SDS011;69035;54.392;18.574;2023-04-23T14:28:02;8.25;;;5.22;;
57073;SDS011;69035;54.392;18.574;2023-04-23T14:30:49;7.65;;;5.40;;
57073;SDS011;69035;54.392;18.574;2023-04-23T14:33:17;11.30;;;5.13;;
57073;SDS011;69035;54.392;18.574;2023-04-23T14:35:46;9.57;;;4.88;;
57073;SDS011;69035;54.392;18.574;2023-04-23T14:38:15;8.68;;;5.43;;
57073;SDS011;69035;54.392;18.574;2023-04-23T14:40:44;9.53;;;5.50;;
57073;SDS011;69035;54.392;18.574;2023-04-23T14:43:13;9.13;;;5.80;;
57073;SDS011;69035;54.392;18.574;2023-04-23T14:45:42;10.07;;;5.10;;
57073;SDS011;69035;54.392;18.574;2023-04-23T14:48:13;8.52;;;5.50;;
57073;SDS011;69035;54.392;18.574;2023-04-23T14:50:41;8.35;;;4.93;;
57073;SDS011;69035;54.392;18.574;2023-04-23T14:53:10;11.13;;;5.95;;
57073;SDS011;69035;54.392;18.574;2023-04-23T14:55:39;10.85;;;5.68;;
57073;SDS011;69035;54.392;18.574;2023-04-23T14:58:10;8.85;;;5.30;;
57073;SDS011;69035;54.392;18.574;2023-04-23T15:00:39;10.95;;;5.20;;
57073;SDS011;69035;54.392;18.574;2023-04-23T15:03:08;7.85;;;4.80;;
57073;SDS011;69035;54.392;18.574;2023-04-23T15:08:07;9.13;;;5.63;;
57073;SDS011;69035;54.392;18.574;2023-04-23T15:10:36;11.07;;;6.05;;
57073;SDS011;69035;54.392;18.574;2023-04-23T15:13:06;9.32;;;5.53;;